sensor_id;sensor_type;location;lat;lon;timestamp;P1;durP1;ratioP1;P2;durP2;ratioP2
16669;SDS011;8448;52.034;5.158;2023-12-29T00:01:11;11.93;;;2.07;;
16669;SDS011;8448;52.034;5.158;2023-12-29T00:03:38;7.10;;;2.10;;
16669;SDS011;8448;52.034;5.158;2023-12-29T00:06:05;10.40;;;2.73;;
16669;SDS011;8448;52.034;5.158;2023-12-29T00:08:35;10.77;;;2.40;;
16669;SDS011;8448;52.034;5.158;2023-12-29T00:11:03;14.97;;;3.00;;
16669;SDS011;8448;52.034;5.158;2023-12-29T00:13:30;13.70;;;3.00;;
16669;SDS011;8448;52.034;5.158;2023-12-29T00:15:58;15.53;;;2.77;;
16669;SDS011;8448;52.034;5.158;2023-12-29T00:18:25;12.87;;;2.40;;
16669;SDS011;8448;52.034;5.158;2023-12-29T00:20:52;16.00;;;2.80;;
16669;SDS011;8448;52.034;5.158;2023-12-29T00:23:20;13.60;;;2.40;;
16669;SDS011;8448;52.034;5.158;2023-12-29T00:25:48;16.53;;;2.80;;
16669;SDS011;8448;52.034;5.158;2023-12-29T00:28:16;9.77;;;2.60;;
16669;SDS011;8448;52.034;5.158;2023-12-29T00:30:43;9.90;;;2.70;;
16669;SDS011;8448;52.034;5.158;2023-12-29T00:33:10;10.43;;;2.50;;
16669;SDS011;8448;52.034;5.158;2023-12-29T00:35:38;10.97;;;2.13;;
16669;SDS011;8448;52.034;5.158;2023-12-29T00:38:05;10.70;;;2.83;;
16669;SDS011;8448;52.034;5.158;2023-12-29T00:40:33;11.77;;;2.60;;
16669;SDS011;8448;52.034;5.158;2023-12-29T00:43:01;11.03;;;2.37;;
16669;SDS011;8448;52.034;5.158;2023-12-29T00:45:30;6.30;;;2.10;;
16669;SDS011;8448;52.034;5.158;2023-12-29T00:48:01;11.63;;;2.40;;
16669;SDS011;8448;52.034;5.158;2023-12-29T00:50:29;9.03;;;2.13;;
16669;SDS011;8448;52.034;5.158;2023-12-29T00:52:56;10.53;;;2.00;;
16669;SDS011;8448;52.034;5.158;2023-12-29T00:55:24;12.70;;;2.40;;
16669;SDS011;8448;52.034;5.158;2023-12-29T00:57:51;7.53;;;2.07;;
16669;SDS011;8448;52.034;5.158;2023-12-29T01:00:20;10.20;;;1.90;;
16669;SDS011;8448;52.034;5.158;2023-12-29T01:02:47;7.77;;;2.07;;
16669;SDS011;8448;52.034;5.158;2023-12-29T01:05:15;11.37;;;2.10;;
16669;SDS011;8448;52.034;5.158;2023-12-29T01:07:44;8.50;;;2.57;;
16669;SDS011;8448;52.034;5.158;2023-12-29T01:10:11;12.33;;;2.20;;
16669;SDS011;8448;52.034;5.158;2023-12-29T01:12:39;9.50;;;2.10;;
16669;SDS011;8448;52.034;5.158;2023-12-29T01:15:06;10.63;;;2.27;;
16669;SDS011;8448;52.034;5.158;2023-12-29T01:17:36;13.20;;;2.50;;
16669;SDS011;8448;52.034;5.158;2023-12-29T01:20:03;9.90;;;2.07;;
16669;SDS011;8448;52.034;5.158;2023-12-29T01:22:31;8.77;;;2.33;;
16669;SDS011;8448;52.034;5.158;2023-12-29T01:24:58;9.03;;;2.33;;
16669;SDS011;8448;52.034;5.158;2023-12-29T01:27:26;13.07;;;2.70;;
16669;SDS011;8448;52.034;5.158;2023-12-29T01:29:54;15.50;;;3.00;;
16669;SDS011;8448;52.034;5.158;2023-12-29T01:32:22;11.00;;;1.97;;
16669;SDS011;8448;52.034;5.158;2023-12-29T01:34:51;8.87;;;2.53;;
16669;SDS011;8448;52.034;5.158;2023-12-29T01:37:19;13.30;;;2.33;;
16669;SDS011;8448;52.034;5.158;2023-12-29T01:39:46;9.10;;;2.40;;
16669;SDS011;8448;52.034;5.158;2023-12-29T01:42:14;11.67;;;2.73;;
16669;SDS011;8448;52.034;5.158;2023-12-29T01:44:42;11.77;;;2.33;;
16669;SDS011;8448;52.034;5.158;2023-12-29T01:47:10;12.10;;;3.07;;
16669;SDS011;8448;52.034;5.158;2023-12-29T01:49:39;7.60;;;2.37;;
16669;SDS011;8448;52.034;5.158;2023-12-29T01:52:08;9.90;;;2.70;;
16669;SDS011;8448;52.034;5.158;2023-12-29T01:54:36;12.87;;;2.77;;
16669;SDS011;8448;52.034;5.158;2023-12-29T01:57:06;9.03;;;2.60;;
16669;SDS011;8448;52.034;5.158;2023-12-29T01:59:34;9.03;;;2.30;;
16669;SDS011;8448;52.034;5.158;2023-12-29T02:02:02;11.10;;;2.73;;
16669;SDS011;8448;52.034;5.158;2023-12-29T02:04:30;7.17;;;2.37;;
16669;SDS011;8448;52.034;5.158;2023-12-29T02:06:57;10.33;;;2.53;;
16669;SDS011;8448;52.034;5.158;2023-12-29T02:09:26;8.63;;;2.33;;
16669;SDS011;8448;52.034;5.158;2023-12-29T02:11:54;10.93;;;2.40;;
16669;SDS011;8448;52.034;5.158;2023-12-29T02:14:23;10.17;;;2.70;;
16669;SDS011;8448;52.034;5.158;2023-12-29T02:16:53;9.37;;;2.40;;
16669;SDS011;8448;52.034;5.158;2023-12-29T02:19:26;9.10;;;2.63;;
16669;SDS011;8448;52.034;5.158;2023-12-29T02:22:03;11.37;;;2.70;;
16669;SDS011;8448;52.034;5.158;2023-12-29T02:24:33;11.53;;;3.13;;
16669;SDS011;8448;52.034;5.158;2023-12-29T02:27:05;9.77;;;2.87;;
16669;SDS011;8448;52.034;5.158;2023-12-29T02:29:39;12.47;;;3.23;;
16669;SDS011;8448;52.034;5.158;2023-12-29T02:32:11;8.23;;;2.63;;
16669;SDS011;8448;52.034;5.158;2023-12-29T02:34:43;7.47;;;2.80;;
16669;SDS011;8448;52.034;5.158;2023-12-29T02:37:10;11.10;;;3.23;;
16669;SDS011;8448;52.034;5.158;2023-12-29T02:39:39;14.27;;;3.63;;
16669;SDS011;8448;52.034;5.158;2023-12-29T02:42:08;13.07;;;3.10;;
16669;SDS011;8448;52.034;5.158;2023-12-29T02:44:35;12.00;;;3.40;;
16669;SDS011;8448;52.034;5.158;2023-12-29T02:47:02;13.30;;;3.27;;
16669;SDS011;8448;52.034;5.158;2023-12-29T02:49:32;14.33;;;3.70;;
16669;SDS011;8448;52.034;5.158;2023-12-29T02:51:59;11.83;;;3.50;;
16669;SDS011;8448;52.034;5.158;2023-12-29T02:54:26;11.20;;;3.50;;
16669;SDS011;8448;52.034;5.158;2023-12-29T02:56:54;12.07;;;3.30;;
16669;SDS011;8448;52.034;5.158;2023-12-29T02:59:22;12.10;;;3.43;;
16669;SDS011;8448;52.034;5.158;2023-12-29T03:01:50;11.30;;;3.13;;
16669;SDS011;8448;52.034;5.158;2023-12-29T03:04:17;16.97;;;3.80;;
16669;SDS011;8448;52.034;5.158;2023-12-29T03:06:44;11.50;;;3.10;;
16669;SDS011;8448;52.034;5.158;2023-12-29T03:09:12;20.70;;;3.63;;
16669;SDS011;8448;52.034;5.158;2023-12-29T03:11:39;17.17;;;3.60;;
16669;SDS011;8448;52.034;5.158;2023-12-29T03:14:07;14.10;;;3.50;;
16669;SDS011;8448;52.034;5.158;2023-12-29T03:16:35;14.33;;;3.33;;
16669;SDS011;8448;52.034;5.158;2023-12-29T03:19:03;12.07;;;3.50;;
16669;SDS011;8448;52.034;5.158;2023-12-29T03:21:30;10.53;;;2.70;;
16669;SDS011;8448;52.034;5.158;2023-12-29T03:23:57;15.43;;;3.27;;
16669;SDS011;8448;52.034;5.158;2023-12-29T03:26:25;13.93;;;3.37;;
16669;SDS011;8448;52.034;5.158;2023-12-29T03:28:52;11.33;;;2.83;;
16669;SDS011;8448;52.034;5.158;2023-12-29T03:31:20;19.70;;;4.07;;
16669;SDS011;8448;52.034;5.158;2023-12-29T03:33:49;17.70;;;3.53;;
16669;SDS011;8448;52.034;5.158;2023-12-29T03:36:16;13.70;;;3.23;;
16669;SDS011;8448;52.034;5.158;2023-12-29T03:38:44;15.57;;;3.23;;
16669;SDS011;8448;52.034;5.158;2023-12-29T03:41:11;13.65;;;3.33;;
16669;SDS011;8448;52.034;5.158;2023-12-29T03:43:39;13.13;;;2.97;;
16669;SDS011;8448;52.034;5.158;2023-12-29T03:46:14;12.75;;;3.08;;
16669;SDS011;8448;52.034;5.158;2023-12-29T03:48:43;15.17;;;3.20;;
16669;SDS011;8448;52.034;5.158;2023-12-29T03:51:11;10.40;;;2.77;;
16669;SDS011;8448;52.034;5.158;2023-12-29T03:53:39;10.07;;;2.70;;
16669;SDS011;8448;52.034;5.158;2023-12-29T03:56:08;16.20;;;2.97;;
16669;SDS011;8448;52.034;5.158;2023-12-29T03:58:43;12.33;;;3.10;;
16669;SDS011;8448;52.034;5.158;2023-12-29T04:01:10;12.57;;;3.07;;
16669;SDS011;8448;52.034;5.158;2023-12-29T04:03:38;14.97;;;2.90;;
16669;SDS011;8448;52.034;5.158;2023-12-29T04:06:07;14.80;;;3.00;;
16669;SDS011;8448;52.034;5.158;2023-12-29T04:08:36;13.17;;;3.10;;
16669;SDS011;8448;52.034;5.158;2023-12-29T04:11:04;16.50;;;2.93;;
16669;SDS011;8448;52.034;5.158;2023-12-29T04:13:32;13.10;;;3.00;;
16669;SDS011;8448;52.034;5.158;2023-12-29T04:16:00;18.93;;;3.47;;
16669;SDS011;8448;52.034;5.158;2023-12-29T04:18:28;17.83;;;4.07;;
16669;SDS011;8448;52.034;5.158;2023-12-29T04:20:55;13.17;;;2.97;;
16669;SDS011;8448;52.034;5.158;2023-12-29T04:23:23;17.97;;;3.43;;
16669;SDS011;8448;52.034;5.158;2023-12-29T04:25:52;19.73;;;3.43;;
16669;SDS011;8448;52.034;5.158;2023-12-29T04:28:19;16.97;;;3.10;;
16669;SDS011;8448;52.034;5.158;2023-12-29T04:30:46;21.17;;;3.80;;
16669;SDS011;8448;52.034;5.158;2023-12-29T04:33:14;14.00;;;3.40;;
16669;SDS011;8448;52.034;5.158;2023-12-29T04:35:41;17.53;;;3.63;;
16669;SDS011;8448;52.034;5.158;2023-12-29T04:38:09;15.07;;;3.70;;
16669;SDS011;8448;52.034;5.158;2023-12-29T04:40:36;13.80;;;3.30;;
16669;SDS011;8448;52.034;5.158;2023-12-29T04:43:06;15.25;;;4.00;;
16669;SDS011;8448;52.034;5.158;2023-12-29T04:45:33;18.33;;;3.47;;
16669;SDS011;8448;52.034;5.158;2023-12-29T04:48:00;15.73;;;2.93;;
16669;SDS011;8448;52.034;5.158;2023-12-29T04:50:28;16.23;;;3.40;;
16669;SDS011;8448;52.034;5.158;2023-12-29T04:52:55;15.57;;;2.90;;
16669;SDS011;8448;52.034;5.158;2023-12-29T04:55:23;16.67;;;3.58;;
16669;SDS011;8448;52.034;5.158;2023-12-29T04:57:50;12.40;;;3.30;;
16669;SDS011;8448;52.034;5.158;2023-12-29T05:00:19;15.63;;;3.50;;
16669;SDS011;8448;52.034;5.158;2023-12-29T05:02:47;18.27;;;3.67;;
16669;SDS011;8448;52.034;5.158;2023-12-29T05:05:14;18.13;;;3.33;;
16669;SDS011;8448;52.034;5.158;2023-12-29T05:07:41;16.80;;;3.85;;
16669;SDS011;8448;52.034;5.158;2023-12-29T05:10:09;17.17;;;3.40;;
16669;SDS011;8448;52.034;5.158;2023-12-29T05:12:36;17.53;;;3.10;;
16669;SDS011;8448;52.034;5.158;2023-12-29T05:15:04;15.60;;;2.93;;
16669;SDS011;8448;52.034;5.158;2023-12-29T05:17:34;18.03;;;3.27;;
16669;SDS011;8448;52.034;5.158;2023-12-29T05:20:01;16.27;;;3.33;;
16669;SDS011;8448;52.034;5.158;2023-12-29T05:22:28;15.30;;;3.45;;
16669;SDS011;8448;52.034;5.158;2023-12-29T05:24:56;15.03;;;3.27;;
16669;SDS011;8448;52.034;5.158;2023-12-29T05:27:25;15.57;;;3.30;;
16669;SDS011;8448;52.034;5.158;2023-12-29T05:29:52;15.60;;;3.33;;
16669;SDS011;8448;52.034;5.158;2023-12-29T05:32:20;17.85;;;3.90;;
16669;SDS011;8448;52.034;5.158;2023-12-29T05:34:48;17.27;;;3.10;;
16669;SDS011;8448;52.034;5.158;2023-12-29T05:37:16;12.73;;;3.13;;
16669;SDS011;8448;52.034;5.158;2023-12-29T05:39:43;14.83;;;3.23;;
16669;SDS011;8448;52.034;5.158;2023-12-29T05:42:11;17.33;;;3.20;;
16669;SDS011;8448;52.034;5.158;2023-12-29T05:44:38;11.97;;;3.20;;
16669;SDS011;8448;52.034;5.158;2023-12-29T05:47:06;17.70;;;3.80;;
16669;SDS011;8448;52.034;5.158;2023-12-29T05:49:33;17.43;;;3.13;;
16669;SDS011;8448;52.034;5.158;2023-12-29T05:52:05;19.17;;;3.47;;
16669;SDS011;8448;52.034;5.158;2023-12-29T05:54:33;15.47;;;2.80;;
16669;SDS011;8448;52.034;5.158;2023-12-29T05:57:00;12.37;;;3.03;;
16669;SDS011;8448;52.034;5.158;2023-12-29T05:59:28;17.30;;;2.93;;
16669;SDS011;8448;52.034;5.158;2023-12-29T06:01:56;15.77;;;3.10;;
16669;SDS011;8448;52.034;5.158;2023-12-29T06:04:23;17.70;;;3.30;;
16669;SDS011;8448;52.034;5.158;2023-12-29T06:06:51;14.67;;;3.03;;
16669;SDS011;8448;52.034;5.158;2023-12-29T06:09:19;19.30;;;3.30;;
16669;SDS011;8448;52.034;5.158;2023-12-29T06:11:47;15.40;;;3.53;;
16669;SDS011;8448;52.034;5.158;2023-12-29T06:14:14;15.00;;;3.20;;
16669;SDS011;8448;52.034;5.158;2023-12-29T06:16:42;13.23;;;2.77;;
16669;SDS011;8448;52.034;5.158;2023-12-29T06:19:09;12.65;;;3.42;;
16669;SDS011;8448;52.034;5.158;2023-12-29T06:21:40;13.87;;;2.93;;
16669;SDS011;8448;52.034;5.158;2023-12-29T06:24:08;12.20;;;3.10;;
16669;SDS011;8448;52.034;5.158;2023-12-29T06:26:38;16.93;;;2.90;;
16669;SDS011;8448;52.034;5.158;2023-12-29T06:29:08;12.97;;;3.00;;
16669;SDS011;8448;52.034;5.158;2023-12-29T06:31:35;11.57;;;2.60;;
16669;SDS011;8448;52.034;5.158;2023-12-29T06:34:06;11.67;;;2.63;;
16669;SDS011;8448;52.034;5.158;2023-12-29T06:36:33;10.13;;;3.17;;
16669;SDS011;8448;52.034;5.158;2023-12-29T06:39:01;10.83;;;3.03;;
16669;SDS011;8448;52.034;5.158;2023-12-29T06:41:28;9.83;;;2.63;;
16669;SDS011;8448;52.034;5.158;2023-12-29T06:43:57;12.60;;;3.33;;
16669;SDS011;8448;52.034;5.158;2023-12-29T06:46:25;11.57;;;2.60;;
16669;SDS011;8448;52.034;5.158;2023-12-29T06:48:52;11.30;;;2.87;;
16669;SDS011;8448;52.034;5.158;2023-12-29T06:51:20;12.32;;;3.50;;
16669;SDS011;8448;52.034;5.158;2023-12-29T06:53:49;9.67;;;2.67;;
16669;SDS011;8448;52.034;5.158;2023-12-29T06:56:17;8.53;;;2.67;;
16669;SDS011;8448;52.034;5.158;2023-12-29T06:58:44;8.93;;;2.40;;
16669;SDS011;8448;52.034;5.158;2023-12-29T07:01:14;7.20;;;2.37;;
16669;SDS011;8448;52.034;5.158;2023-12-29T07:03:42;10.93;;;2.77;;
16669;SDS011;8448;52.034;5.158;2023-12-29T07:06:09;9.30;;;2.80;;
16669;SDS011;8448;52.034;5.158;2023-12-29T07:08:37;8.90;;;2.77;;
16669;SDS011;8448;52.034;5.158;2023-12-29T07:11:08;8.37;;;2.97;;
16669;SDS011;8448;52.034;5.158;2023-12-29T07:13:36;8.93;;;3.20;;
16669;SDS011;8448;52.034;5.158;2023-12-29T07:16:04;9.70;;;2.90;;
16669;SDS011;8448;52.034;5.158;2023-12-29T07:18:33;9.35;;;3.15;;
16669;SDS011;8448;52.034;5.158;2023-12-29T07:21:01;10.43;;;2.83;;
16669;SDS011;8448;52.034;5.158;2023-12-29T07:23:29;9.23;;;2.93;;
16669;SDS011;8448;52.034;5.158;2023-12-29T07:25:57;6.33;;;2.40;;
16669;SDS011;8448;52.034;5.158;2023-12-29T07:28:24;8.03;;;2.60;;
16669;SDS011;8448;52.034;5.158;2023-12-29T07:30:52;10.53;;;2.70;;
16669;SDS011;8448;52.034;5.158;2023-12-29T07:33:19;8.03;;;2.90;;
16669;SDS011;8448;52.034;5.158;2023-12-29T07:35:48;11.13;;;3.53;;
16669;SDS011;8448;52.034;5.158;2023-12-29T07:38:16;10.73;;;3.50;;
16669;SDS011;8448;52.034;5.158;2023-12-29T07:40:43;9.27;;;3.60;;
16669;SDS011;8448;52.034;5.158;2023-12-29T07:43:12;13.25;;;4.00;;
16669;SDS011;8448;52.034;5.158;2023-12-29T07:45:40;10.27;;;3.70;;
16669;SDS011;8448;52.034;5.158;2023-12-29T07:48:08;15.30;;;3.43;;
16669;SDS011;8448;52.034;5.158;2023-12-29T07:50:36;6.10;;;3.17;;
16669;SDS011;8448;52.034;5.158;2023-12-29T07:53:05;6.47;;;3.30;;
16669;SDS011;8448;52.034;5.158;2023-12-29T07:55:36;8.73;;;3.50;;
16669;SDS011;8448;52.034;5.158;2023-12-29T07:58:04;10.38;;;3.28;;
16669;SDS011;8448;52.034;5.158;2023-12-29T08:00:35;8.03;;;3.13;;
16669;SDS011;8448;52.034;5.158;2023-12-29T08:03:03;12.23;;;3.57;;
16669;SDS011;8448;52.034;5.158;2023-12-29T08:05:32;8.83;;;3.00;;
16669;SDS011;8448;52.034;5.158;2023-12-29T08:08:00;8.57;;;3.47;;
16669;SDS011;8448;52.034;5.158;2023-12-29T08:10:28;8.17;;;3.67;;
16669;SDS011;8448;52.034;5.158;2023-12-29T08:12:56;9.93;;;3.70;;
16669;SDS011;8448;52.034;5.158;2023-12-29T08:15:24;8.50;;;4.00;;
16669;SDS011;8448;52.034;5.158;2023-12-29T08:17:51;6.57;;;4.00;;
16669;SDS011;8448;52.034;5.158;2023-12-29T08:20:18;11.30;;;3.47;;
16669;SDS011;8448;52.034;5.158;2023-12-29T08:22:47;10.33;;;3.63;;
16669;SDS011;8448;52.034;5.158;2023-12-29T08:25:15;6.87;;;3.20;;
16669;SDS011;8448;52.034;5.158;2023-12-29T08:27:44;8.27;;;3.33;;
16669;SDS011;8448;52.034;5.158;2023-12-29T08:30:11;7.13;;;3.10;;
16669;SDS011;8448;52.034;5.158;2023-12-29T08:32:39;9.40;;;3.57;;
16669;SDS011;8448;52.034;5.158;2023-12-29T08:35:07;5.60;;;3.30;;
16669;SDS011;8448;52.034;5.158;2023-12-29T08:37:34;5.07;;;2.93;;
16669;SDS011;8448;52.034;5.158;2023-12-29T08:40:02;11.67;;;3.27;;
16669;SDS011;8448;52.034;5.158;2023-12-29T08:42:31;7.20;;;2.93;;
16669;SDS011;8448;52.034;5.158;2023-12-29T08:45:00;7.97;;;2.93;;
16669;SDS011;8448;52.034;5.158;2023-12-29T08:47:28;8.47;;;3.17;;
16669;SDS011;8448;52.034;5.158;2023-12-29T08:49:56;9.13;;;2.93;;
16669;SDS011;8448;52.034;5.158;2023-12-29T08:52:23;5.03;;;2.70;;
16669;SDS011;8448;52.034;5.158;2023-12-29T08:54:51;8.47;;;2.37;;
16669;SDS011;8448;52.034;5.158;2023-12-29T08:57:19;7.73;;;2.70;;
16669;SDS011;8448;52.034;5.158;2023-12-29T08:59:46;9.73;;;2.70;;
16669;SDS011;8448;52.034;5.158;2023-12-29T09:02:15;5.63;;;2.27;;
16669;SDS011;8448;52.034;5.158;2023-12-29T09:04:43;5.47;;;2.10;;
16669;SDS011;8448;52.034;5.158;2023-12-29T09:07:10;9.73;;;2.40;;
16669;SDS011;8448;52.034;5.158;2023-12-29T09:09:37;5.90;;;2.00;;
16669;SDS011;8448;52.034;5.158;2023-12-29T09:12:05;5.27;;;2.10;;
16669;SDS011;8448;52.034;5.158;2023-12-29T09:14:33;10.13;;;2.30;;
16669;SDS011;8448;52.034;5.158;2023-12-29T09:17:00;7.30;;;2.30;;
16669;SDS011;8448;52.034;5.158;2023-12-29T09:19:29;6.43;;;2.03;;
16669;SDS011;8448;52.034;5.158;2023-12-29T09:21:56;7.23;;;2.10;;
16669;SDS011;8448;52.034;5.158;2023-12-29T09:24:24;7.80;;;2.30;;
16669;SDS011;8448;52.034;5.158;2023-12-29T09:26:51;8.17;;;2.30;;
16669;SDS011;8448;52.034;5.158;2023-12-29T09:29:19;4.93;;;2.00;;
16669;SDS011;8448;52.034;5.158;2023-12-29T09:31:46;7.00;;;2.07;;
16669;SDS011;8448;52.034;5.158;2023-12-29T09:34:14;7.20;;;2.07;;
16669;SDS011;8448;52.034;5.158;2023-12-29T09:36:43;6.63;;;2.20;;
16669;SDS011;8448;52.034;5.158;2023-12-29T09:39:11;7.73;;;2.40;;
16669;SDS011;8448;52.034;5.158;2023-12-29T09:41:39;7.83;;;2.27;;
16669;SDS011;8448;52.034;5.158;2023-12-29T09:44:13;7.23;;;2.40;;
16669;SDS011;8448;52.034;5.158;2023-12-29T09:46:41;6.00;;;1.23;;
16669;SDS011;8448;52.034;5.158;2023-12-29T09:49:08;8.77;;;1.70;;
16669;SDS011;8448;52.034;5.158;2023-12-29T09:51:36;7.47;;;1.70;;
16669;SDS011;8448;52.034;5.158;2023-12-29T09:54:05;5.53;;;2.07;;
16669;SDS011;8448;52.034;5.158;2023-12-29T09:56:34;7.13;;;1.90;;
16669;SDS011;8448;52.034;5.158;2023-12-29T09:59:01;4.80;;;1.80;;
16669;SDS011;8448;52.034;5.158;2023-12-29T10:01:30;4.17;;;1.83;;
16669;SDS011;8448;52.034;5.158;2023-12-29T10:03:59;4.43;;;1.90;;
16669;SDS011;8448;52.034;5.158;2023-12-29T10:06:27;4.27;;;2.07;;
16669;SDS011;8448;52.034;5.158;2023-12-29T10:09:01;6.93;;;2.07;;
16669;SDS011;8448;52.034;5.158;2023-12-29T10:11:32;6.67;;;1.77;;
16669;SDS011;8448;52.034;5.158;2023-12-29T10:14:03;4.83;;;1.80;;
16669;SDS011;8448;52.034;5.158;2023-12-29T10:16:35;5.03;;;1.50;;
16669;SDS011;8448;52.034;5.158;2023-12-29T10:19:07;5.87;;;2.00;;
16669;SDS011;8448;52.034;5.158;2023-12-29T10:21:43;6.10;;;2.00;;
16669;SDS011;8448;52.034;5.158;2023-12-29T10:24:18;6.30;;;2.03;;
16669;SDS011;8448;52.034;5.158;2023-12-29T10:26:48;5.47;;;2.00;;
16669;SDS011;8448;52.034;5.158;2023-12-29T10:29:18;4.10;;;1.87;;
16669;SDS011;8448;52.034;5.158;2023-12-29T10:31:46;7.83;;;2.13;;
16669;SDS011;8448;52.034;5.158;2023-12-29T10:34:18;5.77;;;1.60;;
16669;SDS011;8448;52.034;5.158;2023-12-29T10:36:46;3.27;;;1.70;;
16669;SDS011;8448;52.034;5.158;2023-12-29T10:39:14;6.77;;;2.00;;
16669;SDS011;8448;52.034;5.158;2023-12-29T10:41:41;8.60;;;2.27;;
16669;SDS011;8448;52.034;5.158;2023-12-29T10:44:10;7.50;;;1.80;;
16669;SDS011;8448;52.034;5.158;2023-12-29T10:46:39;9.40;;;2.17;;
16669;SDS011;8448;52.034;5.158;2023-12-29T10:49:16;5.57;;;1.70;;
16669;SDS011;8448;52.034;5.158;2023-12-29T10:51:44;6.20;;;2.00;;
16669;SDS011;8448;52.034;5.158;2023-12-29T10:54:16;6.17;;;1.60;;
16669;SDS011;8448;52.034;5.158;2023-12-29T10:56:47;6.67;;;1.80;;
16669;SDS011;8448;52.034;5.158;2023-12-29T10:59:29;7.10;;;1.77;;
16669;SDS011;8448;52.034;5.158;2023-12-29T11:01:56;8.57;;;2.20;;
16669;SDS011;8448;52.034;5.158;2023-12-29T11:04:24;6.90;;;1.50;;
16669;SDS011;8448;52.034;5.158;2023-12-29T11:06:52;5.67;;;1.53;;
16669;SDS011;8448;52.034;5.158;2023-12-29T11:09:26;6.33;;;1.50;;
16669;SDS011;8448;52.034;5.158;2023-12-29T11:11:55;7.23;;;1.93;;
16669;SDS011;8448;52.034;5.158;2023-12-29T11:14:24;5.77;;;1.37;;
16669;SDS011;8448;52.034;5.158;2023-12-29T11:16:55;10.80;;;2.10;;
16669;SDS011;8448;52.034;5.158;2023-12-29T11:19:24;7.93;;;1.50;;
16669;SDS011;8448;52.034;5.158;2023-12-29T11:21:53;9.00;;;1.73;;
16669;SDS011;8448;52.034;5.158;2023-12-29T11:24:22;10.93;;;1.80;;
16669;SDS011;8448;52.034;5.158;2023-12-29T11:26:50;6.30;;;1.50;;
16669;SDS011;8448;52.034;5.158;2023-12-29T11:29:17;7.20;;;1.67;;
16669;SDS011;8448;52.034;5.158;2023-12-29T11:31:45;8.60;;;1.90;;
16669;SDS011;8448;52.034;5.158;2023-12-29T11:34:16;8.98;;;2.13;;
16669;SDS011;8448;52.034;5.158;2023-12-29T11:36:47;11.50;;;2.50;;
16669;SDS011;8448;52.034;5.158;2023-12-29T11:39:16;8.17;;;2.03;;
16669;SDS011;8448;52.034;5.158;2023-12-29T11:41:47;9.23;;;2.10;;
16669;SDS011;8448;52.034;5.158;2023-12-29T11:44:24;8.73;;;2.00;;
16669;SDS011;8448;52.034;5.158;2023-12-29T11:46:52;9.93;;;2.00;;
16669;SDS011;8448;52.034;5.158;2023-12-29T11:49:21;7.37;;;1.83;;
16669;SDS011;8448;52.034;5.158;2023-12-29T11:51:51;9.83;;;1.90;;
16669;SDS011;8448;52.034;5.158;2023-12-29T11:54:24;10.10;;;1.90;;
16669;SDS011;8448;52.034;5.158;2023-12-29T11:56:52;8.47;;;2.03;;
16669;SDS011;8448;52.034;5.158;2023-12-29T11:59:20;6.60;;;1.87;;
16669;SDS011;8448;52.034;5.158;2023-12-29T12:01:49;7.80;;;1.90;;
16669;SDS011;8448;52.034;5.158;2023-12-29T12:04:34;13.07;;;1.90;;
16669;SDS011;8448;52.034;5.158;2023-12-29T12:07:02;15.17;;;2.10;;
16669;SDS011;8448;52.034;5.158;2023-12-29T12:09:30;11.83;;;2.30;;
16669;SDS011;8448;52.034;5.158;2023-12-29T12:12:00;15.33;;;2.57;;
16669;SDS011;8448;52.034;5.158;2023-12-29T12:14:44;12.33;;;2.80;;
16669;SDS011;8448;52.034;5.158;2023-12-29T12:17:12;12.13;;;2.20;;
16669;SDS011;8448;52.034;5.158;2023-12-29T12:19:53;7.73;;;2.33;;
16669;SDS011;8448;52.034;5.158;2023-12-29T12:22:24;12.30;;;2.70;;
16669;SDS011;8448;52.034;5.158;2023-12-29T12:24:55;13.50;;;2.37;;
16669;SDS011;8448;52.034;5.158;2023-12-29T12:27:23;9.87;;;2.67;;
16669;SDS011;8448;52.034;5.158;2023-12-29T12:29:52;11.17;;;2.40;;
16669;SDS011;8448;52.034;5.158;2023-12-29T12:32:22;13.27;;;2.90;;
16669;SDS011;8448;52.034;5.158;2023-12-29T12:34:50;12.80;;;2.80;;
16669;SDS011;8448;52.034;5.158;2023-12-29T12:37:19;9.80;;;2.13;;
16669;SDS011;8448;52.034;5.158;2023-12-29T12:39:48;12.10;;;2.40;;
16669;SDS011;8448;52.034;5.158;2023-12-29T12:42:16;10.97;;;2.40;;
16669;SDS011;8448;52.034;5.158;2023-12-29T12:44:47;13.03;;;2.60;;
16669;SDS011;8448;52.034;5.158;2023-12-29T12:47:24;12.00;;;2.63;;
16669;SDS011;8448;52.034;5.158;2023-12-29T12:49:53;11.27;;;2.80;;
16669;SDS011;8448;52.034;5.158;2023-12-29T12:52:22;13.37;;;3.20;;
16669;SDS011;8448;52.034;5.158;2023-12-29T12:54:50;16.43;;;2.87;;
16669;SDS011;8448;52.034;5.158;2023-12-29T12:57:20;12.47;;;2.67;;
16669;SDS011;8448;52.034;5.158;2023-12-29T12:59:48;8.63;;;2.70;;
16669;SDS011;8448;52.034;5.158;2023-12-29T13:02:16;9.80;;;2.07;;
16669;SDS011;8448;52.034;5.158;2023-12-29T13:04:45;12.53;;;2.40;;
16669;SDS011;8448;52.034;5.158;2023-12-29T13:07:14;12.73;;;2.57;;
16669;SDS011;8448;52.034;5.158;2023-12-29T13:09:43;14.77;;;3.00;;
16669;SDS011;8448;52.034;5.158;2023-12-29T13:12:12;14.40;;;2.60;;
16669;SDS011;8448;52.034;5.158;2023-12-29T13:14:41;11.97;;;2.60;;
16669;SDS011;8448;52.034;5.158;2023-12-29T13:17:09;11.87;;;2.37;;
16669;SDS011;8448;52.034;5.158;2023-12-29T13:19:37;12.20;;;2.37;;
16669;SDS011;8448;52.034;5.158;2023-12-29T13:22:06;14.97;;;3.00;;
16669;SDS011;8448;52.034;5.158;2023-12-29T13:24:35;11.47;;;3.13;;
16669;SDS011;8448;52.034;5.158;2023-12-29T13:27:07;12.37;;;2.53;;
16669;SDS011;8448;52.034;5.158;2023-12-29T13:29:35;12.97;;;2.70;;
16669;SDS011;8448;52.034;5.158;2023-12-29T13:32:04;18.70;;;3.47;;
16669;SDS011;8448;52.034;5.158;2023-12-29T13:34:36;11.23;;;2.60;;
16669;SDS011;8448;52.034;5.158;2023-12-29T13:37:06;18.37;;;2.90;;
16669;SDS011;8448;52.034;5.158;2023-12-29T13:39:37;15.20;;;2.97;;
16669;SDS011;8448;52.034;5.158;2023-12-29T13:42:07;15.33;;;2.90;;
16669;SDS011;8448;52.034;5.158;2023-12-29T13:44:37;16.97;;;3.40;;
16669;SDS011;8448;52.034;5.158;2023-12-29T13:47:06;15.27;;;3.17;;
16669;SDS011;8448;52.034;5.158;2023-12-29T13:49:33;17.47;;;3.40;;
16669;SDS011;8448;52.034;5.158;2023-12-29T13:52:02;17.43;;;3.33;;
16669;SDS011;8448;52.034;5.158;2023-12-29T13:54:29;17.87;;;3.60;;
16669;SDS011;8448;52.034;5.158;2023-12-29T13:56:57;16.90;;;3.03;;
16669;SDS011;8448;52.034;5.158;2023-12-29T13:59:32;14.47;;;2.70;;
16669;SDS011;8448;52.034;5.158;2023-12-29T14:02:02;16.83;;;2.87;;
16669;SDS011;8448;52.034;5.158;2023-12-29T14:04:41;12.07;;;3.00;;
16669;SDS011;8448;52.034;5.158;2023-12-29T14:07:10;17.87;;;2.93;;
16669;SDS011;8448;52.034;5.158;2023-12-29T14:09:38;14.23;;;3.37;;
16669;SDS011;8448;52.034;5.158;2023-12-29T14:12:06;12.30;;;2.90;;
16669;SDS011;8448;52.034;5.158;2023-12-29T14:14:35;13.33;;;3.37;;
16669;SDS011;8448;52.034;5.158;2023-12-29T14:17:02;18.60;;;3.33;;
16669;SDS011;8448;52.034;5.158;2023-12-29T14:19:36;14.57;;;2.83;;
16669;SDS011;8448;52.034;5.158;2023-12-29T14:22:04;14.73;;;2.87;;
16669;SDS011;8448;52.034;5.158;2023-12-29T14:24:31;16.67;;;2.90;;
16669;SDS011;8448;52.034;5.158;2023-12-29T14:26:58;19.40;;;3.53;;
16669;SDS011;8448;52.034;5.158;2023-12-29T14:29:27;13.80;;;3.00;;
16669;SDS011;8448;52.034;5.158;2023-12-29T14:31:56;14.37;;;2.80;;
16669;SDS011;8448;52.034;5.158;2023-12-29T14:34:25;17.37;;;3.17;;
16669;SDS011;8448;52.034;5.158;2023-12-29T14:36:53;19.47;;;3.40;;
16669;SDS011;8448;52.034;5.158;2023-12-29T14:39:20;24.10;;;3.93;;
16669;SDS011;8448;52.034;5.158;2023-12-29T14:41:48;19.03;;;3.70;;
16669;SDS011;8448;52.034;5.158;2023-12-29T14:44:18;18.47;;;3.80;;
16669;SDS011;8448;52.034;5.158;2023-12-29T14:46:45;19.83;;;3.97;;
16669;SDS011;8448;52.034;5.158;2023-12-29T14:49:14;21.67;;;4.10;;
16669;SDS011;8448;52.034;5.158;2023-12-29T14:51:41;17.17;;;3.33;;
16669;SDS011;8448;52.034;5.158;2023-12-29T14:54:09;14.38;;;3.40;;
16669;SDS011;8448;52.034;5.158;2023-12-29T14:56:36;9.13;;;2.70;;
16669;SDS011;8448;52.034;5.158;2023-12-29T14:59:03;15.47;;;2.83;;
16669;SDS011;8448;52.034;5.158;2023-12-29T15:01:31;11.03;;;2.70;;